createdAt,value
2023-02-15T00:03:28.797Z,6.72
2023-02-15T00:07:32.317Z,7.15
2023-02-15T00:11:40.678Z,6.70
2023-02-15T00:15:43.684Z,6.50
2023-02-15T00:19:46.619Z,5.95
2023-02-15T00:23:49.249Z,7.30
2023-02-15T00:27:52.137Z,5.00
2023-02-15T00:31:55.280Z,5.32
2023-02-15T00:36:01.903Z,5.50
2023-02-15T00:40:05.475Z,6.50
2023-02-15T00:44:09.388Z,6.85
2023-02-15T00:48:12.131Z,8.25
2023-02-15T00:52:14.936Z,8.20
2023-02-15T00:56:17.863Z,8.85
2023-02-15T01:00:21.271Z,8.82
2023-02-15T01:04:24.177Z,8.48
2023-02-15T01:08:27.152Z,8.18
2023-02-15T01:12:29.956Z,9.32
2023-02-15T01:16:32.805Z,10.32
2023-02-15T01:20:39.905Z,7.47
2023-02-15T01:24:43.426Z,7.10
2023-02-15T01:28:46.974Z,6.72
2023-02-15T01:32:49.752Z,7.63
2023-02-15T01:36:53.309Z,7.55
2023-02-15T01:41:16.013Z,8.77
2023-02-15T01:45:26.365Z,7.55
2023-02-15T01:49:29.503Z,8.15
2023-02-15T01:53:45.263Z,7.93
2023-02-15T01:57:50.413Z,6.72
2023-02-15T02:01:58.376Z,6.38
2023-02-15T02:06:01.335Z,7.38
2023-02-15T02:10:05.929Z,8.23
2023-02-15T02:14:09.701Z,7.13
2023-02-15T02:18:41.045Z,6.80
2023-02-15T02:22:43.777Z,5.63
2023-02-15T02:27:07.451Z,6.38
2023-02-15T02:31:38.210Z,5.93
2023-02-15T02:35:53.700Z,5.65
2023-02-15T02:40:20.110Z,5.18
2023-02-15T02:48:33.975Z,5.13
2023-02-15T02:52:48.860Z,4.93
2023-02-15T02:56:53.244Z,5.80
2023-02-15T03:01:23.522Z,7.72
2023-02-15T03:05:30.209Z,10.95
2023-02-15T03:09:44.359Z,10.98
2023-02-15T03:13:50.408Z,11.38
2023-02-15T03:17:58.744Z,10.73
2023-02-15T03:22:12.418Z,11.98
2023-02-15T03:26:15.329Z,11.95
2023-02-15T03:30:23.550Z,11.05
2023-02-15T03:38:50.659Z,10.77
2023-02-15T03:43:27.007Z,9.90
2023-02-15T03:51:40.484Z,7.00
2023-02-15T03:55:46.938Z,7.00
2023-02-15T04:00:08.345Z,6.75
2023-02-15T04:04:21.532Z,8.15
2023-02-15T04:08:44.265Z,6.15
2023-02-15T04:12:47.084Z,6.13
2023-02-15T04:16:50.866Z,5.75
2023-02-15T04:21:12.347Z,6.20
2023-02-15T04:25:15.179Z,6.55
2023-02-15T04:29:18.229Z,6.43
2023-02-15T04:33:21.017Z,5.72
2023-02-15T04:37:23.798Z,4.43
2023-02-15T04:41:26.582Z,4.38
2023-02-15T04:45:29.638Z,7.13
2023-02-15T04:49:32.428Z,5.00
2023-02-15T04:53:35.667Z,5.03
2023-02-15T04:57:38.452Z,5.93
2023-02-15T05:01:41.359Z,3.70
2023-02-15T05:05:44.230Z,4.85
2023-02-15T05:09:47.113Z,5.22
2023-02-15T05:13:49.809Z,9.30
2023-02-15T05:17:52.732Z,7.20
2023-02-15T05:21:55.775Z,6.40
2023-02-15T05:26:17.111Z,3.13
2023-02-15T05:30:20.059Z,5.90
2023-02-15T05:34:22.935Z,3.70
2023-02-15T05:38:25.859Z,4.50
2023-02-15T05:42:28.577Z,6.75
2023-02-15T05:46:31.373Z,6.65
2023-02-15T05:50:34.214Z,7.05
2023-02-15T05:54:36.990Z,7.18
2023-02-15T05:58:42.155Z,5.68
2023-02-15T06:02:44.974Z,5.05
2023-02-15T06:06:50.990Z,4.40
2023-02-15T06:10:53.851Z,4.65
2023-02-15T06:14:56.769Z,4.20
2023-02-15T06:19:02.362Z,5.47
2023-02-15T06:23:05.303Z,4.85
2023-02-15T06:27:07.977Z,3.95
2023-02-15T06:31:11.400Z,4.13
2023-02-15T06:35:16.078Z,4.07
2023-02-15T06:39:19.273Z,5.30
2023-02-15T06:43:22.305Z,6.80
2023-02-15T06:47:25.021Z,8.45
2023-02-15T06:51:27.833Z,6.65
2023-02-15T06:55:31.051Z,6.47
2023-02-15T06:59:34.061Z,7.68
2023-02-15T07:03:37.200Z,8.65
2023-02-15T07:07:40.915Z,7.78
2023-02-15T07:12:04.388Z,8.30
2023-02-15T07:16:07.211Z,9.50
2023-02-15T07:20:13.581Z,7.15
2023-02-15T07:24:16.583Z,7.95
2023-02-15T07:28:19.551Z,8.15
2023-02-15T07:32:25.915Z,6.72
2023-02-15T07:36:29.150Z,5.47
2023-02-15T07:40:32.337Z,10.40
2023-02-15T07:44:35.400Z,14.52
2023-02-15T07:48:39.272Z,13.70
2023-02-15T07:52:42.408Z,26.55
2023-02-15T07:56:45.324Z,19.13
2023-02-15T08:00:57.345Z,21.38
2023-02-15T08:05:00.335Z,16.58
2023-02-15T08:09:09.195Z,12.70
2023-02-15T08:13:12.142Z,14.70
2023-02-15T08:17:15.011Z,18.48
2023-02-15T08:21:17.755Z,20.98
2023-02-15T08:25:20.485Z,21.20
2023-02-15T08:29:25.781Z,29.63
2023-02-15T08:33:29.471Z,36.33
2023-02-15T08:37:32.366Z,30.65
2023-02-15T08:41:37.023Z,22.98
2023-02-15T08:45:39.865Z,25.48
2023-02-15T08:49:42.640Z,23.58
2023-02-15T08:53:50.131Z,24.52
2023-02-15T08:57:53.201Z,23.90
2023-02-15T09:01:56.364Z,18.35
2023-02-15T09:06:02.206Z,13.63
2023-02-15T09:10:05.835Z,9.73
2023-02-15T09:14:15.088Z,11.55
2023-02-15T09:18:18.277Z,10.68
2023-02-15T09:22:21.393Z,11.38
2023-02-15T09:26:25.565Z,12.32
2023-02-15T09:30:28.544Z,12.75
2023-02-15T09:34:34.020Z,13.25
2023-02-15T09:38:37.539Z,16.80
2023-02-15T09:42:49.511Z,14.05
2023-02-15T09:47:28.553Z,10.93
2023-02-15T09:51:40.565Z,9.20
2023-02-15T09:56:21.142Z,7.10
2023-02-15T10:00:24.557Z,6.97
2023-02-15T10:04:37.104Z,6.68
2023-02-15T10:08:51.921Z,6.25
2023-02-15T10:13:04.734Z,7.55
2023-02-15T10:17:19.646Z,7.75
2023-02-15T10:21:48.654Z,6.30
2023-02-15T10:26:15.149Z,6.68
2023-02-15T10:30:35.483Z,6.93
2023-02-15T10:35:01.761Z,6.85
2023-02-15T10:39:31.899Z,10.30
2023-02-15T10:43:47.278Z,8.85
2023-02-15T10:48:01.475Z,8.90
2023-02-15T10:52:12.177Z,8.52
2023-02-15T10:56:36.877Z,8.13
2023-02-15T11:01:05.264Z,7.68
2023-02-15T11:05:29.831Z,7.55
2023-02-15T11:09:50.375Z,7.45
2023-02-15T11:14:02.359Z,6.68
2023-02-15T11:18:33.883Z,7.82
2023-02-15T11:22:37.199Z,6.22
2023-02-15T11:26:56.511Z,6.90
2023-02-15T11:31:04.673Z,5.65
2023-02-15T11:35:28.903Z,5.50
2023-02-15T11:39:33.166Z,4.82
2023-02-15T11:43:52.762Z,4.88
2023-02-15T11:47:56.764Z,6.65
2023-02-15T11:52:03.128Z,6.60
2023-02-15T11:56:13.583Z,7.75
2023-02-15T12:00:41.719Z,5.88
2023-02-15T12:04:53.654Z,6.30
2023-02-15T12:09:21.935Z,5.72
2023-02-15T12:13:26.061Z,6.50
2023-02-15T12:17:41.469Z,4.97
2023-02-15T12:21:44.853Z,5.35
2023-02-15T12:25:55.284Z,4.63
2023-02-15T12:30:20.993Z,3.88
2023-02-15T12:34:33.761Z,4.22
2023-02-15T12:38:37.447Z,4.65
2023-02-15T12:42:45.657Z,6.05
2023-02-15T12:47:17.275Z,6.57
2023-02-15T12:51:20.114Z,7.05
2023-02-15T12:55:27.562Z,6.03
2023-02-15T12:59:30.390Z,6.13
2023-02-15T13:03:34.140Z,5.97
2023-02-15T13:07:38.473Z,6.53
2023-02-15T13:11:43.802Z,6.80
2023-02-15T13:15:51.954Z,6.45
2023-02-15T13:19:55.571Z,7.30
2023-02-15T13:24:03.720Z,6.93
2023-02-15T13:28:08.120Z,7.50
2023-02-15T13:32:30.005Z,7.78
2023-02-15T13:36:44.390Z,7.57
2023-02-15T13:41:05.281Z,7.28
2023-02-15T13:45:33.430Z,7.38
2023-02-15T13:50:07.080Z,7.80
2023-02-15T13:54:28.347Z,6.70
2023-02-15T13:58:34.009Z,7.97
2023-02-15T14:02:50.122Z,6.83
2023-02-15T14:07:11.762Z,6.93
2023-02-15T14:11:23.674Z,6.47
2023-02-15T14:15:47.885Z,6.20
2023-02-15T14:20:12.563Z,6.15
2023-02-15T14:24:30.532Z,6.40
2023-02-15T14:28:44.294Z,6.35
2023-02-15T14:32:57.444Z,5.70
2023-02-15T14:37:00.813Z,5.65
2023-02-15T14:41:08.799Z,6.07
2023-02-15T14:45:33.269Z,6.25
2023-02-15T14:49:39.111Z,5.40
2023-02-15T14:53:43.208Z,5.53
2023-02-15T14:57:59.416Z,6.15
2023-02-15T15:02:10.233Z,6.28
2023-02-15T15:06:30.350Z,6.55
2023-02-15T15:10:47.707Z,6.30
2023-02-15T15:14:51.952Z,5.28
2023-02-15T15:18:56.073Z,6.00
2023-02-15T15:23:41.644Z,7.07
2023-02-15T15:27:55.474Z,6.93
2023-02-15T15:32:02.366Z,8.98
2023-02-15T15:36:42.779Z,7.75
2023-02-15T15:41:08.143Z,8.70
2023-02-15T15:45:30.982Z,8.30
2023-02-15T15:49:40.190Z,7.15
2023-02-15T15:53:54.306Z,6.60
2023-02-15T15:58:04.233Z,7.05
2023-02-15T16:02:12.654Z,12.05
2023-02-15T16:06:26.688Z,7.15
2023-02-15T16:10:33.230Z,19.45
2023-02-15T16:18:43.376Z,9.18
2023-02-15T16:23:04.808Z,9.00
2023-02-15T16:27:35.013Z,9.77
2023-02-15T16:31:37.821Z,7.68
2023-02-15T16:36:04.660Z,6.72
2023-02-15T16:40:26.476Z,6.82
2023-02-15T16:44:33.905Z,6.13
2023-02-15T16:48:42.716Z,6.22
2023-02-15T16:52:46.199Z,6.30
2023-02-15T16:56:49.761Z,6.70
2023-02-15T17:00:57.401Z,5.78
2023-02-15T17:05:12.625Z,5.95
2023-02-15T17:09:23.363Z,6.38
2023-02-15T17:13:27.341Z,6.55
2023-02-15T17:17:32.637Z,6.80
2023-02-15T17:21:42.627Z,5.65
2023-02-15T17:25:45.371Z,7.45
2023-02-15T17:29:52.895Z,6.93
2023-02-15T17:33:57.629Z,6.30
2023-02-15T17:38:05.549Z,7.03
2023-02-15T17:42:08.361Z,7.10
2023-02-15T17:46:11.167Z,8.45
2023-02-15T17:50:25.586Z,8.40
2023-02-15T17:54:47.616Z,8.75
2023-02-15T17:58:50.320Z,8.43
2023-02-15T18:03:12.304Z,7.50
2023-02-15T18:07:35.648Z,8.80
2023-02-15T18:11:38.432Z,7.13
2023-02-15T18:15:41.288Z,7.43
2023-02-15T18:19:46.277Z,7.07
2023-02-15T18:23:49.045Z,8.10
2023-02-15T18:27:54.931Z,8.70
2023-02-15T18:31:59.521Z,7.57
2023-02-15T18:36:04.342Z,7.25
2023-02-15T18:40:16.822Z,7.28
2023-02-15T18:44:19.620Z,7.95
2023-02-15T18:48:22.891Z,6.55
2023-02-15T18:52:31.725Z,7.13
2023-02-15T18:56:35.489Z,7.18
2023-02-15T19:00:38.449Z,7.07
2023-02-15T19:04:41.948Z,7.18
2023-02-15T19:08:47.227Z,9.38
2023-02-15T19:12:51.268Z,22.75
2023-02-15T19:16:55.327Z,7.70
2023-02-15T19:20:58.168Z,11.70
2023-02-15T19:25:03.409Z,12.77
2023-02-15T19:29:06.386Z,9.35
2023-02-15T19:33:18.924Z,8.00
2023-02-15T19:37:26.518Z,9.57
2023-02-15T19:41:34.506Z,9.18
2023-02-15T19:45:37.443Z,10.45
2023-02-15T19:49:40.413Z,8.23
2023-02-15T19:53:43.596Z,8.27
2023-02-15T19:57:46.357Z,7.93
2023-02-15T20:01:49.259Z,15.57
2023-02-15T20:05:52.159Z,10.13
2023-02-15T20:09:55.549Z,7.45
2023-02-15T20:13:58.984Z,7.30
2023-02-15T20:18:04.238Z,6.18
2023-02-15T20:22:11.255Z,6.70
2023-02-15T20:26:18.233Z,6.40
2023-02-15T20:30:24.212Z,5.40
2023-02-15T20:34:27.087Z,5.17
2023-02-15T20:38:32.596Z,5.97
2023-02-15T20:42:35.477Z,6.55
2023-02-15T20:46:38.712Z,6.03
2023-02-15T20:50:41.401Z,6.88
2023-02-15T20:54:44.734Z,6.88
2023-02-15T20:58:47.602Z,5.75
2023-02-15T21:02:56.668Z,7.95
2023-02-15T21:07:00.712Z,10.13
2023-02-15T21:11:03.866Z,9.52
2023-02-15T21:15:28.371Z,8.07
2023-02-15T21:19:31.609Z,6.95
2023-02-15T21:23:38.079Z,6.82
2023-02-15T21:27:41.164Z,7.50
2023-02-15T21:31:44.552Z,7.68
2023-02-15T21:35:51.037Z,6.70
2023-02-15T21:39:53.806Z,6.82
2023-02-15T21:44:14.869Z,9.07
2023-02-15T21:48:17.696Z,9.52
2023-02-15T21:52:23.826Z,8.52
2023-02-15T21:56:27.131Z,9.15
2023-02-15T22:00:30.905Z,8.80
2023-02-15T22:04:33.672Z,9.95
2023-02-15T22:08:36.476Z,10.85
2023-02-15T22:12:41.192Z,9.18
2023-02-15T22:16:43.910Z,8.60
2023-02-15T22:20:46.892Z,7.68
2023-02-15T22:24:50.249Z,7.93
2023-02-15T22:28:53.450Z,8.30
2023-02-15T22:32:57.631Z,7.97
2023-02-15T22:37:00.415Z,7.45
2023-02-15T22:41:04.958Z,14.93
2023-02-15T22:45:21.011Z,11.35
2023-02-15T22:49:25.684Z,8.75
2023-02-15T22:53:28.454Z,8.95
2023-02-15T22:57:32.817Z,9.60
2023-02-15T23:01:38.071Z,12.93
2023-02-15T23:05:40.859Z,15.73
2023-02-15T23:09:44.330Z,14.88
2023-02-15T23:13:49.778Z,11.70
2023-02-15T23:17:52.544Z,10.38
2023-02-15T23:21:55.508Z,10.95
2023-02-15T23:25:58.792Z,10.35
2023-02-15T23:30:06.380Z,10.23
2023-02-15T23:34:25.855Z,12.93
2023-02-15T23:38:30.667Z,11.55
2023-02-15T23:42:35.978Z,12.00
2023-02-15T23:46:44.898Z,15.82
2023-02-15T23:50:47.844Z,17.13
2023-02-15T23:54:50.706Z,13.82
2023-02-15T23:58:53.709Z,12.85
